createdAt,value
2023-04-13T00:01:12.955Z,100.00
2023-04-13T00:06:25.901Z,100.00
2023-04-13T00:08:54.792Z,100.00
2023-04-13T00:11:22.332Z,100.00
2023-04-13T00:13:49.714Z,100.00
2023-04-13T00:16:17.818Z,100.00
2023-04-13T00:18:45.260Z,100.00
2023-04-13T00:21:12.615Z,100.00
2023-04-13T00:23:40.648Z,100.00
2023-04-13T00:26:08.001Z,100.00
2023-04-13T00:28:35.428Z,100.00
2023-04-13T00:31:02.957Z,100.00
2023-04-13T00:33:30.382Z,100.00
2023-04-13T00:35:57.790Z,100.00
2023-04-13T00:38:27.263Z,100.00
2023-04-13T00:40:55.744Z,100.00
2023-04-13T00:43:23.133Z,100.00
2023-04-13T00:45:50.983Z,100.00
2023-04-13T00:48:18.510Z,100.00
2023-04-13T00:50:46.204Z,100.00
2023-04-13T00:53:14.072Z,100.00
2023-04-13T00:55:42.322Z,100.00
2023-04-13T00:58:09.948Z,100.00
2023-04-13T01:00:39.137Z,100.00
2023-04-13T01:03:07.131Z,100.00
2023-04-13T01:05:38.283Z,100.00
2023-04-13T01:08:18.592Z,100.00
2023-04-13T01:10:56.112Z,100.00
2023-04-13T01:13:27.092Z,100.00
2023-04-13T01:16:20.906Z,100.00
2023-04-13T01:18:51.293Z,100.00
2023-04-13T01:21:20.476Z,100.00
2023-04-13T01:23:52.585Z,100.00
2023-04-13T01:26:22.617Z,100.00
2023-04-13T01:28:51.367Z,100.00
2023-04-13T01:31:19.632Z,100.00
2023-04-13T01:33:47.891Z,100.00
2023-04-13T01:36:15.513Z,100.00
2023-04-13T01:38:43.503Z,100.00
2023-04-13T01:41:10.945Z,100.00
2023-04-13T01:43:38.654Z,100.00
2023-04-13T01:46:11.431Z,100.00
2023-04-13T01:48:42.299Z,100.00
2023-04-13T01:51:13.463Z,100.00
2023-04-13T01:53:45.111Z,100.00
2023-04-13T01:56:13.898Z,100.00
2023-04-13T01:58:42.457Z,100.00
2023-04-13T02:01:10.912Z,100.00
2023-04-13T02:03:38.946Z,100.00
2023-04-13T02:06:07.466Z,100.00
2023-04-13T02:08:37.097Z,100.00
2023-04-13T02:11:05.273Z,100.00
2023-04-13T02:13:32.722Z,100.00
2023-04-13T02:16:00.237Z,100.00
2023-04-13T02:18:27.854Z,100.00
2023-04-13T02:21:03.311Z,100.00
2023-04-13T02:23:31.977Z,100.00
2023-04-13T02:25:59.473Z,100.00
2023-04-13T02:28:28.420Z,100.00
2023-04-13T02:30:56.012Z,100.00
2023-04-13T02:33:23.467Z,100.00
2023-04-13T02:35:50.943Z,100.00
2023-04-13T02:38:18.354Z,100.00
2023-04-13T02:40:47.288Z,100.00
2023-04-13T02:43:14.846Z,100.00
2023-04-13T02:45:42.300Z,100.00
2023-04-13T02:48:10.629Z,100.00
2023-04-13T02:50:37.998Z,100.00
2023-04-13T02:53:05.388Z,100.00
2023-04-13T02:55:32.820Z,100.00
2023-04-13T02:58:00.250Z,100.00
2023-04-13T03:00:28.616Z,100.00
2023-04-13T03:02:56.145Z,100.00
2023-04-13T03:05:23.539Z,100.00
2023-04-13T03:07:50.987Z,100.00
2023-04-13T03:10:19.000Z,100.00
2023-04-13T03:12:46.435Z,100.00
2023-04-13T03:15:14.729Z,100.00
2023-04-13T03:17:44.092Z,100.00
2023-04-13T03:20:13.108Z,100.00
2023-04-13T03:22:41.011Z,100.00
2023-04-13T03:25:08.832Z,100.00
2023-04-13T03:27:37.083Z,100.00
2023-04-13T03:30:05.125Z,100.00
2023-04-13T03:32:33.393Z,100.00
2023-04-13T03:35:00.876Z,100.00
2023-04-13T03:37:30.368Z,100.00
2023-04-13T03:39:58.991Z,100.00
2023-04-13T03:42:26.515Z,100.00
2023-04-13T03:44:53.986Z,100.00
2023-04-13T03:47:21.434Z,100.00
2023-04-13T03:49:48.875Z,100.00
2023-04-13T03:52:16.304Z,100.00
2023-04-13T03:54:43.807Z,100.00
2023-04-13T03:57:11.354Z,100.00
2023-04-13T03:59:38.827Z,100.00
2023-04-13T04:02:07.113Z,100.00
2023-04-13T04:04:34.698Z,100.00
2023-04-13T04:07:02.129Z,100.00
2023-04-13T04:09:29.657Z,100.00
2023-04-13T04:11:57.567Z,100.00
2023-04-13T04:14:24.999Z,100.00
2023-04-13T04:16:52.923Z,100.00
2023-04-13T04:19:20.296Z,100.00
2023-04-13T04:21:47.741Z,100.00
2023-04-13T04:24:20.633Z,100.00
2023-04-13T04:26:50.214Z,100.00
2023-04-13T04:29:22.175Z,100.00
2023-04-13T04:31:53.595Z,100.00
2023-04-13T04:34:21.474Z,100.00
2023-04-13T04:36:50.975Z,100.00
2023-04-13T04:39:22.005Z,100.00
2023-04-13T04:41:49.953Z,100.00
2023-04-13T04:44:17.790Z,100.00
2023-04-13T04:46:45.237Z,100.00
2023-04-13T04:49:13.049Z,100.00
2023-04-13T04:51:40.431Z,100.00
2023-04-13T04:54:08.086Z,100.00
2023-04-13T04:56:35.573Z,100.00
2023-04-13T04:59:02.947Z,100.00
2023-04-13T05:01:30.649Z,100.00
2023-04-13T05:03:58.149Z,100.00
2023-04-13T05:06:25.607Z,100.00
2023-04-13T05:08:52.978Z,100.00
2023-04-13T05:11:20.684Z,100.00
2023-04-13T05:13:48.089Z,100.00
2023-04-13T05:16:15.581Z,100.00
2023-04-13T05:18:47.118Z,100.00
2023-04-13T05:21:15.329Z,100.00
2023-04-13T05:23:43.634Z,100.00
2023-04-13T05:26:12.035Z,100.00
2023-04-13T05:28:40.005Z,100.00
2023-04-13T05:31:08.569Z,100.00
2023-04-13T05:33:36.290Z,100.00
2023-04-13T05:36:04.508Z,100.00
2023-04-13T05:38:33.104Z,100.00
2023-04-13T05:41:01.089Z,100.00
2023-04-13T05:43:28.609Z,100.00
2023-04-13T05:45:56.230Z,100.00
2023-04-13T05:48:23.718Z,100.00
2023-04-13T05:50:51.494Z,100.00
2023-04-13T05:53:18.917Z,100.00
2023-04-13T05:55:48.193Z,100.00
2023-04-13T05:58:16.235Z,100.00
2023-04-13T06:00:44.113Z,100.00
2023-04-13T06:03:12.064Z,100.00
2023-04-13T06:05:39.734Z,100.00
2023-04-13T06:08:10.452Z,100.00
2023-04-13T06:10:37.899Z,100.00
2023-04-13T06:13:05.398Z,100.00
2023-04-13T06:15:33.162Z,100.00
2023-04-13T06:18:00.632Z,100.00
2023-04-13T06:20:28.106Z,100.00
2023-04-13T06:22:55.498Z,100.00
2023-04-13T06:25:23.067Z,100.00
2023-04-13T06:27:50.662Z,100.00
2023-04-13T06:30:18.148Z,100.00
2023-04-13T06:32:45.810Z,100.00
2023-04-13T06:35:13.289Z,100.00
2023-04-13T06:37:40.702Z,100.00
2023-04-13T06:40:10.245Z,100.00
2023-04-13T06:42:37.738Z,100.00
2023-04-13T06:45:05.255Z,100.00
2023-04-13T06:47:32.943Z,100.00
2023-04-13T06:50:03.942Z,100.00
2023-04-13T06:52:31.552Z,100.00
2023-04-13T06:54:59.031Z,100.00
2023-04-13T06:57:26.456Z,100.00
2023-04-13T06:59:53.889Z,100.00
2023-04-13T07:02:21.455Z,100.00
2023-04-13T07:04:49.058Z,100.00
2023-04-13T07:07:16.581Z,100.00
2023-04-13T07:09:43.988Z,100.00
2023-04-13T07:12:11.859Z,100.00
2023-04-13T07:14:39.834Z,100.00
2023-04-13T07:17:07.355Z,100.00
2023-04-13T07:19:35.768Z,100.00
2023-04-13T07:22:04.483Z,100.00
2023-04-13T07:24:32.129Z,100.00
2023-04-13T07:27:00.118Z,100.00
2023-04-13T07:29:27.846Z,100.00
2023-04-13T07:31:59.870Z,100.00
2023-04-13T07:34:27.452Z,100.00
2023-04-13T07:36:54.863Z,100.00
2023-04-13T07:39:22.631Z,100.00
2023-04-13T07:41:50.215Z,100.00
2023-04-13T07:44:17.673Z,100.00
2023-04-13T07:46:45.330Z,100.00
2023-04-13T07:49:12.762Z,100.00
2023-04-13T07:51:40.206Z,100.00
2023-04-13T07:54:07.641Z,100.00
2023-04-13T07:56:36.262Z,100.00
2023-04-13T07:59:03.832Z,100.00
2023-04-13T08:01:31.492Z,100.00
2023-04-13T08:03:59.092Z,100.00
2023-04-13T08:06:27.159Z,100.00
2023-04-13T08:08:54.579Z,100.00
2023-04-13T08:11:22.030Z,100.00
2023-04-13T08:13:49.438Z,100.00
2023-04-13T08:16:16.959Z,100.00
2023-04-13T08:18:44.519Z,100.00
2023-04-13T08:21:12.793Z,100.00
2023-04-13T08:23:43.369Z,100.00
2023-04-13T08:26:17.823Z,100.00
2023-04-13T08:28:45.511Z,100.00
2023-04-13T08:31:13.240Z,100.00
2023-04-13T08:33:40.606Z,100.00
2023-04-13T08:36:08.595Z,100.00
2023-04-13T08:38:37.015Z,100.00
2023-04-13T08:41:04.819Z,100.00
2023-04-13T08:43:36.587Z,100.00
2023-04-13T08:46:05.171Z,100.00
2023-04-13T08:48:42.790Z,100.00
2023-04-13T08:51:22.515Z,100.00
2023-04-13T08:53:50.684Z,100.00
2023-04-13T08:56:18.287Z,100.00
2023-04-13T08:58:48.013Z,100.00
2023-04-13T09:01:15.984Z,100.00
2023-04-13T09:03:56.481Z,100.00
2023-04-13T09:06:34.988Z,100.00
2023-04-13T09:09:06.064Z,100.00
2023-04-13T09:11:33.917Z,100.00
2023-04-13T09:14:01.625Z,100.00
2023-04-13T09:16:29.871Z,100.00
2023-04-13T09:18:58.762Z,100.00
2023-04-13T09:21:37.263Z,100.00
2023-04-13T09:24:04.734Z,100.00
2023-04-13T09:26:40.399Z,100.00
2023-04-13T09:29:10.255Z,100.00
2023-04-13T09:31:43.590Z,100.00
2023-04-13T09:34:12.642Z,100.00
2023-04-13T09:36:52.964Z,100.00
2023-04-13T09:39:26.071Z,100.00
2023-04-13T09:41:54.255Z,100.00
2023-04-13T09:44:24.469Z,100.00
2023-04-13T09:47:02.507Z,100.00
2023-04-13T09:49:43.026Z,100.00
2023-04-13T09:52:23.858Z,100.00
2023-04-13T09:54:55.398Z,100.00
2023-04-13T09:57:29.808Z,100.00
2023-04-13T10:00:00.783Z,100.00
2023-04-13T10:02:29.461Z,100.00
2023-04-13T10:04:57.579Z,100.00
2023-04-13T10:07:29.978Z,100.00
2023-04-13T10:09:57.393Z,100.00
2023-04-13T10:12:26.035Z,100.00
2023-04-13T10:14:55.311Z,100.00
2023-04-13T10:17:22.931Z,100.00
2023-04-13T10:19:52.257Z,100.00
2023-04-13T10:22:20.756Z,100.00
2023-04-13T10:24:48.267Z,100.00
2023-04-13T10:27:22.605Z,100.00
2023-04-13T10:29:50.350Z,100.00
2023-04-13T10:32:25.116Z,100.00
2023-04-13T10:34:53.328Z,100.00
2023-04-13T10:37:23.119Z,100.00
2023-04-13T10:40:01.935Z,99.78
2023-04-13T10:42:51.177Z,98.58
2023-04-13T10:45:28.130Z,97.33
2023-04-13T10:47:58.347Z,98.89
2023-04-13T10:50:27.578Z,95.05
2023-04-13T10:53:03.836Z,93.64
2023-04-13T10:55:31.777Z,95.08
2023-04-13T10:58:00.211Z,91.87
2023-04-13T11:00:44.702Z,94.59
2023-04-13T11:03:15.058Z,96.30
2023-04-13T11:05:43.094Z,93.55
2023-04-13T11:08:10.532Z,94.32
2023-04-13T11:10:37.934Z,97.74
2023-04-13T11:13:05.430Z,96.60
2023-04-13T11:15:34.148Z,91.59
2023-04-13T11:18:02.289Z,89.63
2023-04-13T11:20:33.931Z,90.42
2023-04-13T11:23:02.342Z,95.58
2023-04-13T11:25:29.983Z,92.73
2023-04-13T11:27:58.683Z,91.46
2023-04-13T11:30:26.824Z,92.97
2023-04-13T11:32:54.753Z,94.45
2023-04-13T11:35:23.556Z,93.65
2023-04-13T11:37:54.633Z,95.54
2023-04-13T11:40:23.434Z,92.74
2023-04-13T11:42:53.327Z,96.13
2023-04-13T11:45:22.275Z,95.20
2023-04-13T11:47:52.990Z,95.60
2023-04-13T11:50:21.488Z,97.63
2023-04-13T11:52:50.276Z,95.66
2023-04-13T11:55:23.453Z,95.92
2023-04-13T11:57:52.357Z,92.28
2023-04-13T12:00:24.277Z,92.46
2023-04-13T12:03:01.741Z,94.54
2023-04-13T12:05:32.467Z,89.48
2023-04-13T12:08:01.283Z,90.00
2023-04-13T12:10:39.690Z,89.55
2023-04-13T12:16:01.849Z,89.83
2023-04-13T12:18:37.587Z,92.32
2023-04-13T12:21:06.103Z,89.75
2023-04-13T12:23:33.758Z,90.76
2023-04-13T12:26:25.925Z,85.71
2023-04-13T12:28:55.829Z,84.49
2023-04-13T12:31:23.525Z,80.39
2023-04-13T12:33:51.487Z,85.38
2023-04-13T12:36:19.032Z,85.56
2023-04-13T12:38:46.436Z,84.19
2023-04-13T12:41:13.850Z,85.66
2023-04-13T12:43:41.291Z,87.33
2023-04-13T12:46:08.761Z,82.89
2023-04-13T12:48:36.402Z,79.47
2023-04-13T12:51:03.938Z,77.64
2023-04-13T12:53:31.334Z,79.26
2023-04-13T12:55:58.740Z,70.83
2023-04-13T12:58:26.113Z,64.16
2023-04-13T13:00:53.663Z,64.08
2023-04-13T13:03:21.370Z,60.78
2023-04-13T13:05:48.749Z,57.07
2023-04-13T13:08:16.453Z,56.37
2023-04-13T13:10:44.172Z,60.75
2023-04-13T13:13:11.696Z,56.78
2023-04-13T13:15:39.140Z,55.64
2023-04-13T13:18:08.921Z,53.07
2023-04-13T13:20:41.018Z,57.31
2023-04-13T13:23:12.538Z,54.04
2023-04-13T13:25:42.442Z,59.67
2023-04-13T13:28:15.396Z,62.03
2023-04-13T13:30:43.459Z,60.69
2023-04-13T13:33:11.014Z,59.22
2023-04-13T13:35:38.475Z,61.88
2023-04-13T13:38:05.982Z,67.54
2023-04-13T13:40:33.373Z,70.90
2023-04-13T13:43:00.718Z,75.50
2023-04-13T13:45:28.217Z,74.80
2023-04-13T13:47:57.019Z,70.13
2023-04-13T13:50:24.564Z,69.82
2023-04-13T13:53:03.264Z,64.65
2023-04-13T13:55:31.619Z,67.80
2023-04-13T13:57:59.098Z,65.20
2023-04-13T14:00:27.265Z,60.37
2023-04-13T14:02:54.773Z,64.24
2023-04-13T14:05:22.750Z,66.48
2023-04-13T14:07:50.975Z,64.89
2023-04-13T14:10:18.432Z,65.49
2023-04-13T14:12:48.951Z,68.04
2023-04-13T14:15:18.011Z,70.43
2023-04-13T14:17:50.433Z,68.16
2023-04-13T14:20:23.192Z,67.98
2023-04-13T14:22:50.622Z,65.18
2023-04-13T14:25:18.012Z,65.57
2023-04-13T14:27:45.446Z,64.25
2023-04-13T14:30:13.079Z,65.93
2023-04-13T14:32:40.540Z,63.54
2023-04-13T14:35:08.025Z,62.00
2023-04-13T14:37:35.432Z,67.26
2023-04-13T14:40:13.108Z,62.79
2023-04-13T14:42:40.816Z,63.00
2023-04-13T14:45:10.554Z,61.20
2023-04-13T14:47:38.786Z,64.02
2023-04-13T14:50:08.184Z,65.78
2023-04-13T14:52:35.746Z,67.68
2023-04-13T14:55:04.284Z,63.74
2023-04-13T14:57:32.468Z,66.44
2023-04-13T14:59:59.846Z,66.13
2023-04-13T15:02:28.672Z,69.54
2023-04-13T15:04:58.342Z,68.67
2023-04-13T15:07:29.231Z,69.35
2023-04-13T15:09:58.089Z,64.48
2023-04-13T15:12:25.665Z,67.08
2023-04-13T15:14:53.131Z,63.55
2023-04-13T15:17:21.143Z,63.85
2023-04-13T15:19:48.649Z,69.27
2023-04-13T15:22:16.010Z,64.17
2023-04-13T15:24:43.420Z,62.56
2023-04-13T15:27:10.876Z,63.06
2023-04-13T15:29:38.340Z,65.17
2023-04-13T15:32:05.935Z,64.90
2023-04-13T15:34:33.364Z,63.67
2023-04-13T15:37:00.820Z,67.70
2023-04-13T15:39:29.332Z,64.78
2023-04-13T15:41:57.888Z,64.21
2023-04-13T15:44:25.274Z,66.17
2023-04-13T15:46:52.691Z,64.25
2023-04-13T15:49:20.248Z,67.40
2023-04-13T15:51:47.639Z,63.08
2023-04-13T15:54:15.022Z,60.70
2023-04-13T15:56:44.217Z,61.20
2023-04-13T15:59:11.681Z,60.00
2023-04-13T16:01:49.578Z,59.85
2023-04-13T16:04:17.296Z,60.46
2023-04-13T16:06:44.769Z,60.57
2023-04-13T16:09:12.214Z,60.11
2023-04-13T16:11:39.620Z,58.30
2023-04-13T16:14:08.042Z,60.00
2023-04-13T16:16:44.029Z,58.68
2023-04-13T16:19:12.404Z,58.70
2023-04-13T16:21:43.419Z,61.67
2023-04-13T16:24:12.152Z,60.70
2023-04-13T16:26:39.674Z,60.14
2023-04-13T16:29:08.122Z,59.06
2023-04-13T16:31:35.692Z,58.67
2023-04-13T16:34:11.804Z,57.54
2023-04-13T16:36:50.166Z,54.79
2023-04-13T16:39:17.920Z,57.38
2023-04-13T16:41:45.443Z,51.87
2023-04-13T16:44:12.813Z,50.10
2023-04-13T16:46:40.297Z,48.23
2023-04-13T16:49:07.768Z,49.43
2023-04-13T16:51:35.392Z,48.99
2023-04-13T16:54:04.373Z,51.99
2023-04-13T16:56:32.127Z,51.05
2023-04-13T16:58:59.818Z,52.07
2023-04-13T17:01:28.243Z,54.92
2023-04-13T17:03:55.986Z,52.56
2023-04-13T17:06:23.486Z,52.20
2023-04-13T17:08:50.942Z,53.84
2023-04-13T17:11:18.439Z,52.97
2023-04-13T17:13:46.416Z,54.46
2023-04-13T17:16:13.969Z,54.31
2023-04-13T17:18:41.528Z,54.27
2023-04-13T17:21:08.917Z,53.26
2023-04-13T17:23:36.260Z,54.74
2023-04-13T17:26:04.277Z,56.02
2023-04-13T17:28:31.712Z,57.60
2023-04-13T17:30:59.122Z,56.76
2023-04-13T17:33:28.197Z,57.95
2023-04-13T17:35:56.089Z,58.52
2023-04-13T17:38:23.583Z,62.50
2023-04-13T17:40:52.121Z,60.60
2023-04-13T17:43:19.723Z,62.43
2023-04-13T17:45:47.360Z,60.32
2023-04-13T17:48:15.125Z,61.93
2023-04-13T17:50:42.557Z,62.17
2023-04-13T17:53:09.932Z,65.95
2023-04-13T17:55:37.889Z,66.35
2023-04-13T17:58:05.430Z,66.86
2023-04-13T18:00:32.798Z,70.18
2023-04-13T18:03:02.384Z,72.94
2023-04-13T18:05:31.379Z,73.64
2023-04-13T18:07:59.304Z,73.98
2023-04-13T18:10:26.734Z,74.33
2023-04-13T18:12:54.171Z,74.79
2023-04-13T18:15:21.830Z,77.09
2023-04-13T18:17:49.289Z,78.84
2023-04-13T18:20:16.685Z,78.27
2023-04-13T18:22:44.075Z,80.89
2023-04-13T18:25:11.480Z,79.68
2023-04-13T18:27:38.950Z,79.11
2023-04-13T18:30:06.614Z,79.50
2023-04-13T18:32:34.141Z,80.64
2023-04-13T18:35:01.838Z,84.15
2023-04-13T18:37:29.358Z,85.56
2023-04-13T18:39:57.831Z,85.50
2023-04-13T18:42:25.416Z,87.37
2023-04-13T18:44:52.822Z,89.61
2023-04-13T18:47:22.322Z,89.47
2023-04-13T18:49:49.720Z,91.91
2023-04-13T18:52:17.117Z,92.67
2023-04-13T18:54:44.561Z,95.18
2023-04-13T18:57:11.952Z,96.52
2023-04-13T18:59:39.410Z,96.84
2023-04-13T19:02:06.953Z,97.16
2023-04-13T19:04:35.921Z,97.06
2023-04-13T19:07:04.895Z,98.14
2023-04-13T19:09:32.297Z,97.71
2023-04-13T19:12:02.329Z,97.37
2023-04-13T19:14:30.043Z,97.65
2023-04-13T19:16:58.036Z,99.95
2023-04-13T19:19:25.792Z,99.10
2023-04-13T19:21:54.093Z,97.73
2023-04-13T19:24:22.035Z,97.19
2023-04-13T19:26:49.578Z,98.34
2023-04-13T19:29:17.422Z,97.92
2023-04-13T19:31:45.534Z,97.49
2023-04-13T19:34:13.270Z,98.07
2023-04-13T19:36:41.385Z,97.84
2023-04-13T19:39:10.119Z,97.40
2023-04-13T19:41:38.231Z,98.67
2023-04-13T19:44:07.844Z,97.58
2023-04-13T19:46:35.630Z,97.40
2023-04-13T19:49:03.226Z,96.77
2023-04-13T19:51:32.242Z,96.82
2023-04-13T19:54:01.916Z,94.76
2023-04-13T19:56:30.827Z,94.10
2023-04-13T19:58:58.590Z,94.65
2023-04-13T20:01:26.408Z,96.91
2023-04-13T20:03:53.915Z,99.76
2023-04-13T20:06:21.471Z,100.00
2023-04-13T20:08:49.009Z,100.00
2023-04-13T20:11:16.505Z,100.00
2023-04-13T20:13:45.337Z,100.00
2023-04-13T20:16:12.821Z,100.00
2023-04-13T20:18:40.292Z,100.00
2023-04-13T20:21:08.197Z,100.00
2023-04-13T20:23:36.253Z,100.00
2023-04-13T20:26:04.632Z,100.00
2023-04-13T20:28:33.234Z,100.00
2023-04-13T20:31:00.689Z,100.00
2023-04-13T20:33:28.105Z,100.00
2023-04-13T20:35:56.134Z,100.00
2023-04-13T20:38:24.764Z,100.00
2023-04-13T20:40:52.134Z,100.00
2023-04-13T20:43:20.673Z,100.00
2023-04-13T20:45:48.236Z,100.00
2023-04-13T20:50:47.980Z,100.00
2023-04-13T20:53:17.330Z,100.00
2023-04-13T20:55:47.401Z,100.00
2023-04-13T20:58:15.770Z,100.00
2023-04-13T21:00:43.685Z,100.00
2023-04-13T21:03:11.623Z,100.00
2023-04-13T21:05:39.433Z,100.00
2023-04-13T21:08:06.906Z,100.00
2023-04-13T21:10:34.524Z,100.00
2023-04-13T21:13:01.983Z,100.00
2023-04-13T21:15:29.540Z,100.00
2023-04-13T21:17:56.960Z,100.00
2023-04-13T21:20:25.500Z,100.00
2023-04-13T21:22:52.924Z,100.00
2023-04-13T21:25:20.473Z,100.00
2023-04-13T21:27:47.982Z,100.00
2023-04-13T21:30:15.468Z,100.00
2023-04-13T21:32:42.886Z,100.00
2023-04-13T21:35:10.628Z,100.00
2023-04-13T21:37:38.041Z,100.00
2023-04-13T21:40:05.755Z,100.00
2023-04-13T21:42:33.162Z,100.00
2023-04-13T21:45:00.618Z,100.00
2023-04-13T21:47:28.090Z,100.00
2023-04-13T21:49:55.536Z,100.00
2023-04-13T21:52:22.938Z,100.00
2023-04-13T21:54:51.665Z,100.00
2023-04-13T21:57:19.367Z,100.00
2023-04-13T21:59:46.785Z,100.00
2023-04-13T22:02:14.249Z,100.00
2023-04-13T22:04:41.695Z,100.00
2023-04-13T22:07:09.110Z,100.00
2023-04-13T22:09:36.530Z,100.00
2023-04-13T22:12:03.959Z,100.00
2023-04-13T22:14:31.327Z,100.00
2023-04-13T22:16:59.513Z,100.00
2023-04-13T22:19:26.919Z,100.00
2023-04-13T22:21:54.377Z,100.00
2023-04-13T22:24:21.817Z,100.00
2023-04-13T22:26:49.368Z,100.00
2023-04-13T22:29:16.725Z,100.00
2023-04-13T22:31:44.189Z,100.00
2023-04-13T22:34:11.900Z,100.00
2023-04-13T22:36:39.353Z,100.00
2023-04-13T22:39:06.831Z,100.00
2023-04-13T22:41:34.227Z,100.00
2023-04-13T22:44:01.624Z,100.00
2023-04-13T22:46:29.150Z,100.00
2023-04-13T22:48:56.595Z,100.00
2023-04-13T22:51:24.076Z,100.00
2023-04-13T22:53:51.499Z,100.00
2023-04-13T22:56:18.933Z,100.00
2023-04-13T22:58:46.349Z,100.00
2023-04-13T23:01:13.685Z,100.00
2023-04-13T23:03:41.387Z,100.00
2023-04-13T23:06:08.965Z,100.00
2023-04-13T23:08:36.406Z,100.00
2023-04-13T23:11:10.559Z,100.00
2023-04-13T23:13:38.066Z,100.00
2023-04-13T23:16:06.794Z,100.00
2023-04-13T23:18:34.199Z,100.00
2023-04-13T23:21:09.108Z,100.00
2023-04-13T23:23:36.626Z,100.00
2023-04-13T23:26:04.179Z,100.00
2023-04-13T23:28:31.586Z,100.00
2023-04-13T23:31:05.596Z,100.00
2023-04-13T23:33:33.460Z,100.00
2023-04-13T23:36:01.421Z,100.00
2023-04-13T23:38:29.077Z,100.00
2023-04-13T23:40:57.009Z,100.00
2023-04-13T23:43:24.836Z,100.00
2023-04-13T23:45:53.262Z,100.00
2023-04-13T23:48:21.494Z,100.00
2023-04-13T23:50:49.473Z,100.00
2023-04-13T23:53:17.579Z,100.00
2023-04-13T23:55:44.921Z,100.00
2023-04-13T23:58:12.440Z,100.00
